Time;durP1;ratioP1;P1;durP2;ratioP2;P2;SDS_P1;SDS_P2;PMS_P1;PMS_P2;Temp;Humidity;BMP_temperature;BMP_pressure;BME280_temperature;BME280_humidity;BME280_pressure;Samples;Min_cycle;Max_cycle;Signal;HPM_P1;HPM_P2
2019/08/27 00:01:43;;;;;;;17;15.2;;;;;;;20.69;85.03906;961.8428;;;;
2019/08/27 00:04:08;;;;;;;16.8;15.3;;;;;;;20.63;85.37012;961.8024;;;;
2019/08/27 00:06:33;;;;;;;17.6;16;;;;;;;20.59;86.16406;961.7922;;;;
2019/08/27 00:08:59;;;;;;;17.9;16.3;;;;;;;20.59;85.29297;961.779;;;;
2019/08/27 00:11:24;;;;;;;17.8;16.1;;;;;;;20.51;86.70215;961.7003;;;;
2019/08/27 00:13:49;;;;;;;18.8;17.1;;;;;;;20.4;86.80859;961.6856;;;;
2019/08/27 00:16:14;;;;;;;19.2;17.5;;;;;;;20.34;87.06738;961.7297;;;;
2019/08/27 00:18:39;;;;;;;18.6;16.9;;;;;;;20.36;87.7666;961.6614;;;;
2019/08/27 00:21:04;;;;;;;18.1;16.5;;;;;;;20.43;87.14355;961.6563;;;;
2019/08/27 00:23:30;;;;;;;17.9;16.3;;;;;;;20.45;86.39551;961.6774;;;;
2019/08/27 00:25:55;;;;;;;19.3;17.4;;;;;;;20.31;86.90918;961.6439;;;;
2019/08/27 00:28:20;;;;;;;20.8;18.9;;;;;;;20.39;85.74707;961.6145;;;;
2019/08/27 00:30:45;;;;;;;20.5;18.6;;;;;;;20.47;85.58789;961.5952;;;;
2019/08/27 00:33:10;;;;;;;20.7;18.7;;;;;;;20.45;86.48926;961.6046;;;;
2019/08/27 00:35:35;;;;;;;20;18.2;;;;;;;20.39;86.1123;961.5633;;;;
2019/08/27 00:38:01;;;;;;;18.8;17;;;;;;;20.44;86.29785;961.5941;;;;
2019/08/27 00:40:26;;;;;;;21.5;19.4;;;;;;;20.45;85.95996;961.569;;;;
2019/08/27 00:42:51;;;;;;;19.7;17.7;;;;;;;20.47;86.29297;961.5712;;;;
2019/08/27 00:45:16;;;;;;;18.9;17.1;;;;;;;20.51;86.4668;961.6094;;;;
2019/08/27 00:47:41;;;;;;;19.3;17.5;;;;;;;20.57;86.41992;961.6227;;;;
2019/08/27 00:50:06;;;;;;;19.1;17.4;;;;;;;20.49;86.48438;961.6387;;;;
2019/08/27 00:52:31;;;;;;;18.6;17.1;;;;;;;20.55;86.1084;961.5967;;;;
2019/08/27 00:54:56;;;;;;;19.2;17.6;;;;;;;20.65;86.42188;961.6083;;;;
2019/08/27 00:57:22;;;;;;;17.6;16;;;;;;;20.53;86.48145;961.5656;;;;
2019/08/27 00:59:47;;;;;;;20.4;18.5;;;;;;;20.46;86.5498;961.6128;;;;
2019/08/27 01:02:12;;;;;;;19.3;17.4;;;;;;;20.46;86.14941;961.6169;;;;
2019/08/27 01:04:38;;;;;;;19.1;17.4;;;;;;;20.36;86.81348;961.6838;;;;
2019/08/27 01:07:03;;;;;;;22;19.8;;;;;;;20.22;87.63379;961.6439;;;;
2019/08/27 01:09:28;;;;;;;19.3;17.6;;;;;;;20.27;87.4668;961.5834;;;;
2019/08/27 01:11:53;;;;;;;20.1;18.2;;;;;;;20.14;88.34766;961.5366;;;;
2019/08/27 01:14:18;;;;;;;20.4;18.6;;;;;;;20.21;87.6875;961.5472;;;;
2019/08/27 01:16:44;;;;;;;20.7;18.8;;;;;;;20.24;87.45898;961.5948;;;;
2019/08/27 01:19:09;;;;;;;20.1;18.3;;;;;;;20.19;87.79199;961.5815;;;;
2019/08/27 01:21:34;;;;;;;21.7;19.6;;;;;;;20.14;87.47656;961.5978;;;;
2019/08/27 01:23:59;;;;;;;21.4;19.3;;;;;;;20.06;88.05957;961.657;;;;
2019/08/27 01:26:24;;;;;;;22;19.8;;;;;;;19.9;88.66211;961.6487;;;;
2019/08/27 01:28:50;;;;;;;22.3;20.2;;;;;;;19.88;88.94238;961.6066;;;;
2019/08/27 01:31:15;;;;;;;20.5;18.8;;;;;;;19.99;88.36426;961.6183;;;;
2019/08/27 01:33:41;;;;;;;21.4;19.2;;;;;;;20.01;87.7207;961.598;;;;
2019/08/27 01:36:05;;;;;;;22.3;20.2;;;;;;;20.02;87.71094;961.6072;;;;
2019/08/27 01:38:30;;;;;;;22.5;20.5;;;;;;;19.98;88.0918;961.6044;;;;
2019/08/27 01:40:55;;;;;;;22.6;20.5;;;;;;;19.9;88.76953;961.5203;;;;
2019/08/27 01:43:24;;;;;;;24.2;21.9;;;;;;;19.82;88.91797;961.5428;;;;
2019/08/27 01:45:47;;;;;;;24.1;21.9;;;;;;;19.79;89.81738;961.5458;;;;
2019/08/27 01:48:11;;;;;;;25.1;22.8;;;;;;;19.74;89.99512;961.5748;;;;
2019/08/27 01:50:36;;;;;;;27.4;24.9;;;;;;;19.7;90.24414;961.5603;;;;
2019/08/27 01:53:01;;;;;;;26.9;24.3;;;;;;;19.74;89.88867;961.5655;;;;
2019/08/27 01:55:27;;;;;;;27.8;25.1;;;;;;;19.73;89.05273;961.54;;;;
2019/08/27 01:57:52;;;;;;;29.2;26.3;;;;;;;19.71;89.02344;961.5477;;;;
2019/08/27 02:00:17;;;;;;;27.5;24.8;;;;;;;19.68;90.16992;961.5762;;;;
2019/08/27 02:02:42;;;;;;;25.8;23.5;;;;;;;19.8;89.5;961.6342;;;;
2019/08/27 02:05:08;;;;;;;25;22.7;;;;;;;19.86;89.40723;961.7047;;;;
2019/08/27 02:07:33;;;;;;;25.6;23.2;;;;;;;19.81;89.35059;961.7285;;;;
2019/08/27 02:09:58;;;;;;;25.1;22.8;;;;;;;19.84;89.10938;961.7015;;;;
2019/08/27 02:12:24;;;;;;;26.8;24;;;;;;;19.78;89.46094;961.7141;;;;
2019/08/27 02:14:49;;;;;;;27.2;24.6;;;;;;;19.58;90.5;961.6509;;;;
2019/08/27 02:17:14;;;;;;;27;24.3;;;;;;;19.53;90.17383;961.6555;;;;
2019/08/27 02:19:39;;;;;;;25.7;23.3;;;;;;;19.58;90.13672;961.6997;;;;
2019/08/27 02:22:04;;;;;;;26.4;24;;;;;;;19.65;90.30566;961.7322;;;;
2019/08/27 02:24:29;;;;;;;26.5;24;;;;;;;19.57;90.24219;961.7461;;;;
2019/08/27 02:26:54;;;;;;;26.2;23.7;;;;;;;19.48;90.68164;961.7911;;;;
2019/08/27 02:29:20;;;;;;;27.2;24.6;;;;;;;19.48;90.57617;961.7845;;;;
2019/08/27 02:32:13;;;;;;;25.9;23.4;;;;;;;19.57;90.27539;961.7727;;;;
2019/08/27 02:34:38;;;;;;;26.4;23.8;;;;;;;19.57;90.1123;961.7751;;;;
2019/08/27 02:37:03;;;;;;;26.4;23.8;;;;;;;19.44;91.1543;961.7866;;;;
2019/08/27 02:39:28;;;;;;;24.5;22.2;;;;;;;19.48;90.98535;961.8242;;;;
2019/08/27 02:41:53;;;;;;;25.6;23.2;;;;;;;19.54;90.72949;961.8002;;;;
2019/08/27 02:44:18;;;;;;;25.1;22.6;;;;;;;19.56;90.47363;961.7718;;;;
2019/08/27 02:46:43;;;;;;;24;21.8;;;;;;;19.46;91.09863;961.8864;;;;
2019/08/27 02:49:08;;;;;;;23.9;21.7;;;;;;;19.49;90.36621;961.9066;;;;
2019/08/27 02:51:33;;;;;;;24;21.7;;;;;;;19.49;90.21387;961.9058;;;;
2019/08/27 02:53:58;;;;;;;23.4;21.3;;;;;;;19.46;90.24316;961.8674;;;;
2019/08/27 02:56:23;;;;;;;22.1;20.1;;;;;;;19.44;90.26367;961.9363;;;;
2019/08/27 02:58:49;;;;;;;22.7;20.6;;;;;;;19.45;89.74609;961.932;;;;
2019/08/27 03:01:14;;;;;;;22.8;20.8;;;;;;;19.4;90.04297;961.9316;;;;
2019/08/27 03:03:39;;;;;;;22;20;;;;;;;19.43;89.92871;961.9472;;;;
2019/08/27 03:06:04;;;;;;;22.1;20.1;;;;;;;19.4;89.6084;961.9821;;;;
2019/08/27 03:08:29;;;;;;;23.8;21.6;;;;;;;19.38;89.91992;961.9799;;;;
2019/08/27 03:10:54;;;;;;;23.1;21;;;;;;;19.39;89.75879;962.0112;;;;
2019/08/27 03:13:19;;;;;;;22;19.9;;;;;;;19.36;90.09375;962.0711;;;;
2019/08/27 03:15:44;;;;;;;21.8;19.8;;;;;;;19.38;89.5459;962.0883;;;;
2019/08/27 03:18:09;;;;;;;21.6;19.7;;;;;;;19.38;89.1582;962.0854;;;;
2019/08/27 03:20:34;;;;;;;23.3;21.1;;;;;;;19.33;89.40625;962.0516;;;;
2019/08/27 03:23:00;;;;;;;22.8;20.8;;;;;;;19.25;89.51855;962.0302;;;;
2019/08/27 03:25:25;;;;;;;23;20.8;;;;;;;19.2;89.83594;962.0099;;;;
2019/08/27 03:27:50;;;;;;;23.5;21.4;;;;;;;19.15;90.49609;961.9659;;;;
2019/08/27 03:30:16;;;;;;;22.9;20.5;;;;;;;19.12;90.35938;961.9242;;;;
2019/08/27 03:32:41;;;;;;;23.5;21.4;;;;;;;19.1;90.16797;961.9557;;;;
2019/08/27 03:35:06;;;;;;;23.4;21.2;;;;;;;19.17;89.76074;962.0027;;;;
2019/08/27 03:37:31;;;;;;;23.8;21.5;;;;;;;19.08;90.21191;961.931;;;;
2019/08/27 03:39:59;;;;;;;23.2;21;;;;;;;19.14;89.62402;961.923;;;;
2019/08/27 03:42:24;;;;;;;23.5;21.4;;;;;;;19.17;89.2793;961.8994;;;;
2019/08/27 03:44:49;;;;;;;23.8;21.6;;;;;;;19.06;90.2998;961.9307;;;;
2019/08/27 03:47:14;;;;;;;23;21;;;;;;;18.93;90.75488;961.8986;;;;
2019/08/27 03:49:39;;;;;;;24;21.8;;;;;;;18.85;91.52441;961.8228;;;;
2019/08/27 03:52:04;;;;;;;24.9;22.5;;;;;;;18.86;90.39063;961.8234;;;;
2019/08/27 03:54:29;;;;;;;24.5;22.2;;;;;;;18.87;90.33203;961.8167;;;;
2019/08/27 03:56:54;;;;;;;23.6;21.4;;;;;;;18.92;89.99121;961.8295;;;;
2019/08/27 03:59:19;;;;;;;23.1;20.9;;;;;;;18.96;90.05664;961.9133;;;;
2019/08/27 04:02:27;;;;;;;24.4;22.1;;;;;;;18.93;90.19434;961.9426;;;;
2019/08/27 04:04:52;;;;;;;23.6;21.5;;;;;;;18.91;90.43457;961.9833;;;;
2019/08/27 04:07:17;;;;;;;23.3;21.3;;;;;;;18.91;90.27051;961.9535;;;;
2019/08/27 04:09:42;;;;;;;24.1;21.9;;;;;;;18.84;90.66699;961.9582;;;;
2019/08/27 04:12:08;;;;;;;23.3;21.1;;;;;;;18.82;90.88574;961.9866;;;;
2019/08/27 04:14:33;;;;;;;23.3;21.2;;;;;;;18.79;90.97363;961.9827;;;;
2019/08/27 04:16:58;;;;;;;23;20.8;;;;;;;18.8;90.64746;961.9387;;;;
2019/08/27 04:19:23;;;;;;;21.6;19.7;;;;;;;18.84;90.45508;961.9483;;;;
2019/08/27 04:21:48;;;;;;;22.4;20.4;;;;;;;18.83;90.5127;961.9469;;;;
2019/08/27 04:24:13;;;;;;;22.3;20.4;;;;;;;18.78;90.66504;961.9794;;;;
2019/08/27 04:26:38;;;;;;;22.4;20.2;;;;;;;18.78;90.2334;962.0033;;;;
2019/08/27 04:29:03;;;;;;;22.5;20.4;;;;;;;18.76;90.69824;962.0978;;;;
2019/08/27 04:31:28;;;;;;;21.8;19.9;;;;;;;18.79;90.34082;962.0944;;;;
2019/08/27 04:33:53;;;;;;;23;20.9;;;;;;;18.73;91.125;962.1286;;;;
2019/08/27 04:36:18;;;;;;;22.2;20.1;;;;;;;18.81;90.30957;962.1516;;;;
2019/08/27 04:38:44;;;;;;;24.1;21.9;;;;;;;18.59;91.02539;962.2037;;;;
2019/08/27 04:41:09;;;;;;;23.8;21.6;;;;;;;18.59;90.60352;962.2327;;;;
2019/08/27 04:43:34;;;;;;;23.6;21.4;;;;;;;18.58;90.74219;962.2147;;;;
2019/08/27 04:45:59;;;;;;;22.8;20.8;;;;;;;18.56;91.21875;962.2609;;;;
2019/08/27 04:48:24;;;;;;;23.4;21.1;;;;;;;18.54;90.9668;962.2545;;;;
2019/08/27 04:50:49;;;;;;;22.4;20.5;;;;;;;18.6;91.37891;962.2209;;;;
2019/08/27 04:53:14;;;;;;;23.3;21.1;;;;;;;18.49;91.09863;962.1484;;;;
2019/08/27 04:55:39;;;;;;;22.2;20.2;;;;;;;18.57;90.50586;962.2327;;;;
2019/08/27 04:58:04;;;;;;;23.5;21.2;;;;;;;18.59;89.79395;962.2714;;;;
2019/08/27 05:00:30;;;;;;;22.2;20.1;;;;;;;18.69;89.69922;962.235;;;;
2019/08/27 05:02:55;;;;;;;23.7;21.4;;;;;;;18.5;91.22949;962.2853;;;;
2019/08/27 05:05:20;;;;;;;22.1;19.9;;;;;;;18.48;90.5459;962.2729;;;;
2019/08/27 05:07:45;;;;;;;21;18.9;;;;;;;18.58;90.47461;962.2642;;;;
2019/08/27 05:10:10;;;;;;;21.8;19.6;;;;;;;18.53;89.76953;962.2728;;;;
2019/08/27 05:12:35;;;;;;;21.3;19.4;;;;;;;18.52;90.16797;962.2258;;;;
2019/08/27 05:15:00;;;;;;;21.9;19.7;;;;;;;18.62;89.66113;962.2439;;;;
2019/08/27 05:17:25;;;;;;;22.4;20;;;;;;;18.53;90.51953;962.2628;;;;
2019/08/27 05:19:51;;;;;;;22.5;20.3;;;;;;;18.57;90.00391;962.2367;;;;
2019/08/27 05:22:16;;;;;;;21.1;19.1;;;;;;;18.54;89.93555;962.2601;;;;
2019/08/27 05:24:41;;;;;;;21.8;19.6;;;;;;;18.49;90.31348;962.2714;;;;
2019/08/27 05:27:06;;;;;;;21.5;19.5;;;;;;;18.37;91.34375;962.2608;;;;
2019/08/27 05:29:34;;;;;;;22;20;;;;;;;18.41;90.67188;962.2449;;;;
2019/08/27 05:31:56;;;;;;;20.7;18.7;;;;;;;18.48;90.32324;962.2161;;;;
2019/08/27 05:34:21;;;;;;;20.5;18.7;;;;;;;18.55;89.6582;962.2396;;;;
2019/08/27 05:36:46;;;;;;;20.4;18.5;;;;;;;18.55;89.73047;962.2635;;;;
2019/08/27 05:39:11;;;;;;;20.1;18.3;;;;;;;18.56;89.03906;962.294;;;;
2019/08/27 05:41:36;;;;;;;19.8;18;;;;;;;18.51;89.43848;962.3075;;;;
2019/08/27 05:44:01;;;;;;;19.4;17.7;;;;;;;18.6;88.21387;962.3389;;;;
2019/08/27 05:46:27;;;;;;;20;18.1;;;;;;;18.59;88.08301;962.3391;;;;
2019/08/27 05:48:52;;;;;;;20.4;18.3;;;;;;;18.66;88.15625;962.3657;;;;
2019/08/27 05:51:17;;;;;;;19.8;17.9;;;;;;;18.57;88.99512;962.3672;;;;
2019/08/27 05:53:42;;;;;;;19.7;17.9;;;;;;;18.73;88.1582;962.3992;;;;
2019/08/27 05:56:07;;;;;;;19.8;18;;;;;;;18.64;88.60938;962.3768;;;;
2019/08/27 05:58:32;;;;;;;19.5;17.7;;;;;;;18.69;87.6123;962.4249;;;;
2019/08/27 06:00:57;;;;;;;20.1;18.1;;;;;;;18.76;87.26074;962.4967;;;;
2019/08/27 06:03:22;;;;;;;19.9;17.9;;;;;;;18.72;88.09668;962.4891;;;;
2019/08/27 06:05:47;;;;;;;19.3;17.4;;;;;;;18.74;87.59766;962.548;;;;
2019/08/27 06:08:12;;;;;;;19.4;17.6;;;;;;;18.78;87.4873;962.5673;;;;
2019/08/27 06:10:37;;;;;;;19.2;17.3;;;;;;;18.88;87.43848;962.579;;;;
2019/08/27 06:13:03;;;;;;;18.6;16.8;;;;;;;18.94;87.25098;962.5959;;;;
2019/08/27 06:15:28;;;;;;;19;17.2;;;;;;;18.99;86.95508;962.6069;;;;
2019/08/27 06:17:53;;;;;;;18.7;16.9;;;;;;;19.06;86.3584;962.6577;;;;
2019/08/27 06:20:18;;;;;;;20;18.1;;;;;;;18.98;86.55469;962.6724;;;;
2019/08/27 06:22:43;;;;;;;18.5;16.7;;;;;;;19.17;86.37988;962.7672;;;;
2019/08/27 06:25:08;;;;;;;20;17.9;;;;;;;19.28;85.93164;962.7562;;;;
2019/08/27 06:27:34;;;;;;;20.9;18.7;;;;;;;19.38;85.22266;962.7601;;;;
2019/08/27 06:29:59;;;;;;;21.1;19;;;;;;;19.32;84.9873;962.7798;;;;
2019/08/27 06:32:24;;;;;;;22.2;20;;;;;;;19.23;85.22852;962.7625;;;;
2019/08/27 06:34:49;;;;;;;20.7;18.5;;;;;;;19.36;85.24219;962.7026;;;;
2019/08/27 06:37:14;;;;;;;22.9;19.2;;;;;;;19.48;84.73828;962.6575;;;;
2019/08/27 06:39:40;;;;;;;20.5;18.4;;;;;;;19.61;83.61035;962.6047;;;;
2019/08/27 06:42:05;;;;;;;21.5;19.3;;;;;;;19.78;83.04492;962.6677;;;;
2019/08/27 06:44:30;;;;;;;22;19.7;;;;;;;19.84;82.83203;962.7299;;;;
2019/08/27 06:46:55;;;;;;;22.2;20.1;;;;;;;19.9;83.12598;962.8208;;;;
2019/08/27 06:49:20;;;;;;;21.8;19.8;;;;;;;19.88;83.24023;962.8251;;;;
2019/08/27 06:51:45;;;;;;;22.5;20.2;;;;;;;19.91;83.16309;962.8521;;;;
2019/08/27 06:54:10;;;;;;;22.8;20.7;;;;;;;20.06;82.64844;962.9033;;;;
2019/08/27 06:56:36;;;;;;;23.8;21.6;;;;;;;19.98;83.7627;962.9009;;;;
2019/08/27 06:59:01;;;;;;;23.6;21.3;;;;;;;20.04;82.97656;962.9219;;;;
2019/08/27 07:01:26;;;;;;;22.7;20.6;;;;;;;20.04;83.96289;962.8984;;;;
2019/08/27 07:03:51;;;;;;;22.7;20.6;;;;;;;20.13;84.20313;962.9429;;;;
2019/08/27 07:06:16;;;;;;;23.6;21.3;;;;;;;20.13;84.10938;962.9131;;;;
2019/08/27 07:08:41;;;;;;;24.3;22.1;;;;;;;20.23;83.18652;962.9078;;;;
2019/08/27 07:11:06;;;;;;;24.4;22;;;;;;;20.34;82.86719;962.8433;;;;
2019/08/27 07:13:31;;;;;;;23.8;21.5;;;;;;;20.4;82.50098;962.8754;;;;
2019/08/27 07:15:56;;;;;;;22.8;20.8;;;;;;;20.48;82.89258;962.9;;;;
2019/08/27 07:18:22;;;;;;;24.4;22.2;;;;;;;20.47;83.09082;962.9358;;;;
2019/08/27 07:20:47;;;;;;;24.2;21.9;;;;;;;20.58;82.72266;962.9833;;;;
2019/08/27 07:23:12;;;;;;;23.6;21.3;;;;;;;20.71;82.80664;962.9839;;;;
2019/08/27 07:25:37;;;;;;;22.2;20.1;;;;;;;20.75;82.80176;962.9668;;;;
2019/08/27 07:28:03;;;;;;;21.6;19.7;;;;;;;20.8;82.83496;963.0173;;;;
2019/08/27 07:30:28;;;;;;;24.4;22.1;;;;;;;20.96;81.7334;963.0455;;;;
2019/08/27 07:32:53;;;;;;;26.5;24;;;;;;;20.97;81.21875;963.0471;;;;
2019/08/27 07:35:18;;;;;;;26.4;23.8;;;;;;;21.05;81.47949;963.0605;;;;
2019/08/27 07:37:43;;;;;;;29;26.2;;;;;;;21.11;80.7832;963.0388;;;;
2019/08/27 07:40:08;;;;;;;26.8;24.1;;;;;;;21.14;80.81152;962.9838;;;;
2019/08/27 07:42:33;;;;;;;27;24.5;;;;;;;21.15;81.20117;962.9917;;;;
2019/08/27 07:44:58;;;;;;;26.8;24.4;;;;;;;21.2;81.29297;963.0424;;;;
2019/08/27 07:47:23;;;;;;;27.4;24.9;;;;;;;21.15;81.58008;963.0492;;;;
2019/08/27 07:49:49;;;;;;;25;22.7;;;;;;;21.25;81.68066;963.0764;;;;
2019/08/27 07:52:14;;;;;;;27.9;25.3;;;;;;;21.32;80.78516;963.1247;;;;
2019/08/27 07:54:39;;;;;;;29.9;27.2;;;;;;;21.31;80.11133;963.1649;;;;
2019/08/27 07:57:04;;;;;;;28;25.3;;;;;;;21.45;79.71289;963.1364;;;;
2019/08/27 07:59:29;;;;;;;28.1;25.5;;;;;;;21.45;79.60645;963.1262;;;;
2019/08/27 08:01:54;;;;;;;27.2;24.6;;;;;;;21.53;79.19629;963.0981;;;;
2019/08/27 08:04:19;;;;;;;25.5;23.1;;;;;;;21.7;78.97852;963.1175;;;;
2019/08/27 08:06:44;;;;;;;28.2;25.5;;;;;;;21.75;78.95117;963.0769;;;;
2019/08/27 08:09:09;;;;;;;25;22.6;;;;;;;21.78;79.45313;963.1027;;;;
2019/08/27 08:11:34;;;;;;;27;24.4;;;;;;;21.81;79.16113;963.1013;;;;
2019/08/27 08:13:59;;;;;;;25.8;23.4;;;;;;;21.88;79.05566;963.1199;;;;
2019/08/27 08:16:24;;;;;;;25.5;23.1;;;;;;;21.99;78.13184;963.0978;;;;
2019/08/27 08:18:50;;;;;;;25.4;22.9;;;;;;;22.05;78.73242;963.0981;;;;
2019/08/27 08:21:15;;;;;;;25.9;23.1;;;;;;;22.13;78.33301;963.1364;;;;
2019/08/27 08:23:40;;;;;;;27.6;24.9;;;;;;;22.23;76.95703;963.1822;;;;
2019/08/27 08:26:05;;;;;;;28;25.3;;;;;;;22.24;76.64941;963.2193;;;;
2019/08/27 08:28:33;;;;;;;26.9;24.3;;;;;;;22.28;77.00195;963.2388;;;;
2019/08/27 08:30:55;;;;;;;26.2;23.8;;;;;;;22.3;76.36523;963.2469;;;;
2019/08/27 08:33:20;;;;;;;25.3;22.8;;;;;;;22.38;75.61035;963.2313;;;;
2019/08/27 08:35:45;;;;;;;25.7;22.9;;;;;;;22.42;76.375;963.2592;;;;
2019/08/27 08:38:11;;;;;;;25.5;22.9;;;;;;;22.56;75.22852;963.2505;;;;
2019/08/27 08:40:36;;;;;;;21.7;19.7;;;;;;;22.66;76.14453;963.3095;;;;
2019/08/27 08:43:01;;;;;;;22.9;20.7;;;;;;;22.8;74.41699;963.2925;;;;
2019/08/27 08:45:26;;;;;;;23.6;21.3;;;;;;;22.81;74.02637;963.2988;;;;
2019/08/27 08:47:51;;;;;;;21.7;19.7;;;;;;;22.94;73.08984;963.3206;;;;
2019/08/27 08:50:16;;;;;;;21.7;19.6;;;;;;;23.05;72.39746;963.3193;;;;
2019/08/27 08:52:41;;;;;;;21.9;19.9;;;;;;;23.06;72.46973;963.3323;;;;
2019/08/27 08:55:06;;;;;;;22.5;20.3;;;;;;;22.91;73.60645;963.3089;;;;
2019/08/27 08:57:31;;;;;;;20.9;18.9;;;;;;;23.04;73.89941;963.2722;;;;
2019/08/27 08:59:57;;;;;;;21.6;19.5;;;;;;;23.09;74.26367;963.2874;;;;
2019/08/27 09:02:22;;;;;;;19.7;17.8;;;;;;;23.31;73.13672;963.294;;;;
2019/08/27 09:04:47;;;;;;;19.9;17.9;;;;;;;23.32;72.13281;963.2644;;;;
2019/08/27 09:07:12;;;;;;;21.9;19.8;;;;;;;23.35;71.99609;963.2845;;;;
2019/08/27 09:09:38;;;;;;;19.4;17.6;;;;;;;23.41;72.3623;963.2828;;;;
2019/08/27 09:12:03;;;;;;;19.5;17.7;;;;;;;23.42;72.31445;963.2885;;;;
2019/08/27 09:14:29;;;;;;;19.9;18;;;;;;;23.44;72.55469;963.2788;;;;
2019/08/27 09:16:54;;;;;;;20;18.1;;;;;;;23.56;72.32617;963.2773;;;;
2019/08/27 09:19:19;;;;;;;21.6;18.9;;;;;;;23.51;72.48438;963.2103;;;;
2019/08/27 09:21:44;;;;;;;19.3;17.6;;;;;;;23.62;71.96875;963.1542;;;;
2019/08/27 09:24:10;;;;;;;20.2;18.1;;;;;;;23.72;71.73535;963.1568;;;;
2019/08/27 09:26:35;;;;;;;19;17.1;;;;;;;23.76;72.63281;963.1825;;;;
2019/08/27 09:29:00;;;;;;;19.5;17.6;;;;;;;23.85;72.26563;963.0867;;;;
2019/08/27 09:31:25;;;;;;;20.4;18.4;;;;;;;23.92;71.91113;963.058;;;;
2019/08/27 09:33:51;;;;;;;21.5;19.3;;;;;;;23.91;72.50293;962.9984;;;;
2019/08/27 09:36:16;;;;;;;19.6;17.7;;;;;;;23.89;74.19336;963.0217;;;;
2019/08/27 09:38:41;;;;;;;22.8;20.4;;;;;;;23.94;71.53418;963.0051;;;;
2019/08/27 09:41:06;;;;;;;21.2;19.1;;;;;;;24.04;70.95703;962.9988;;;;
2019/08/27 09:43:32;;;;;;;20.1;18.2;;;;;;;24.07;71.48145;963.0083;;;;
2019/08/27 09:45:57;;;;;;;21.6;19.6;;;;;;;23.98;71.13672;962.9623;;;;
2019/08/27 09:48:22;;;;;;;20.2;18.3;;;;;;;24.24;69.19531;962.9531;;;;
2019/08/27 09:50:47;;;;;;;20.9;18.9;;;;;;;24.12;70.76758;962.9692;;;;
2019/08/27 09:53:12;;;;;;;20.2;18.1;;;;;;;24.12;69.91309;962.9701;;;;
2019/08/27 09:55:38;;;;;;;21.7;19.5;;;;;;;24.11;69.68457;962.9578;;;;
2019/08/27 09:58:03;;;;;;;20.9;18.9;;;;;;;24.2;69.94922;962.997;;;;
2019/08/27 10:00:29;;;;;;;18.6;16.8;;;;;;;24.18;70.46875;962.9467;;;;
2019/08/27 10:02:54;;;;;;;20.1;18.2;;;;;;;24.31;69.7041;962.968;;;;
2019/08/27 10:05:20;;;;;;;20.1;18.2;;;;;;;24.55;66.99805;962.8799;;;;
2019/08/27 10:07:45;;;;;;;18.3;16.5;;;;;;;24.76;66.00684;962.8686;;;;
2019/08/27 10:10:10;;;;;;;18.9;17;;;;;;;24.81;66.99023;962.8447;;;;
2019/08/27 10:12:35;;;;;;;17.6;15.9;;;;;;;24.77;67.375;962.8268;;;;
2019/08/27 10:15:00;;;;;;;20;17.9;;;;;;;24.84;66.70898;962.8528;;;;
2019/08/27 10:17:25;;;;;;;16.3;14.7;;;;;;;24.88;65.82324;962.8438;;;;
2019/08/27 10:19:50;;;;;;;25.9;23.4;;;;;;;24.97;66.77441;962.8378;;;;
2019/08/27 10:22:16;;;;;;;16.7;15.1;;;;;;;24.92;64.96094;962.8328;;;;
2019/08/27 10:24:41;;;;;;;15.9;14.4;;;;;;;24.84;66.30469;962.7767;;;;
2019/08/27 10:27:06;;;;;;;18.2;16.4;;;;;;;24.85;67.58984;962.7924;;;;
2019/08/27 10:29:32;;;;;;;16.8;15.2;;;;;;;24.99;64.9834;962.7794;;;;
2019/08/27 10:31:57;;;;;;;15.3;13.7;;;;;;;25.24;64.1377;962.7399;;;;
2019/08/27 10:34:22;;;;;;;14.8;13.3;;;;;;;25.27;64.42871;962.743;;;;
2019/08/27 10:36:47;;;;;;;15.4;14;;;;;;;25.22;64.25391;962.6806;;;;
2019/08/27 10:39:12;;;;;;;15.6;14.1;;;;;;;25.23;64.2207;962.6599;;;;
2019/08/27 10:41:38;;;;;;;16.7;15;;;;;;;25.35;64.14355;962.7234;;;;
2019/08/27 10:44:03;;;;;;;19.6;17.7;;;;;;;25.37;64.62012;962.717;;;;
2019/08/27 10:46:28;;;;;;;15;13.6;;;;;;;25.42;62.5459;962.7161;;;;
2019/08/27 10:48:53;;;;;;;15.1;13.7;;;;;;;25.44;62.69141;962.709;;;;
2019/08/27 10:51:19;;;;;;;12.8;11.7;;;;;;;25.53;61.80957;962.65;;;;
2019/08/27 10:53:44;;;;;;;17.4;15.8;;;;;;;25.71;61.01172;962.6077;;;;
2019/08/27 10:56:09;;;;;;;60;54.1;;;;;;;25.67;61.3418;962.5662;;;;
2019/08/27 10:58:35;;;;;;;30.7;27.9;;;;;;;25.83;60.98145;962.5834;;;;
2019/08/27 11:01:00;;;;;;;15.5;14;;;;;;;25.84;61.54395;962.5811;;;;
2019/08/27 11:03:25;;;;;;;11.1;10.1;;;;;;;26.01;60.18359;962.6046;;;;
2019/08/27 11:05:50;;;;;;;12.5;10.7;;;;;;;25.95;62.41699;962.5739;;;;
2019/08/27 11:08:15;;;;;;;11.9;10.9;;;;;;;25.97;61.7998;962.5715;;;;
2019/08/27 11:10:40;;;;;;;12.1;11;;;;;;;25.97;62.02637;962.5549;;;;
2019/08/27 11:13:05;;;;;;;11.2;10;;;;;;;25.98;60.51465;962.5159;;;;
2019/08/27 11:15:31;;;;;;;10.6;9.6;;;;;;;26.3;58.31445;962.54;;;;
2019/08/27 11:17:56;;;;;;;12.4;11.3;;;;;;;26.35;58.77539;962.4742;;;;
2019/08/27 11:20:21;;;;;;;11;9.9;;;;;;;26.27;58.31152;962.4819;;;;
2019/08/27 11:22:47;;;;;;;11.8;10.6;;;;;;;25.89;58.62891;962.4778;;;;
2019/08/27 11:25:12;;;;;;;12;10.9;;;;;;;25.75;59.55371;962.4447;;;;
2019/08/27 11:27:37;;;;;;;11.3;10.2;;;;;;;25.99;60.07422;962.4632;;;;
2019/08/27 11:30:03;;;;;;;11.7;10.6;;;;;;;26.1;59.02832;962.4772;;;;
2019/08/27 11:34:53;;;;;;;10.6;9.6;;;;;;;26.57;56.63184;962.4361;;;;
2019/08/27 11:37:18;;;;;;;12.2;10.6;;;;;;;26.42;57.61523;962.4141;;;;
2019/08/27 11:39:43;;;;;;;10;9;;;;;;;26.5;55.39355;962.4353;;;;
2019/08/27 11:42:08;;;;;;;9.9;9;;;;;;;26.57;55.86816;962.4855;;;;
2019/08/27 11:44:34;;;;;;;10;9;;;;;;;26.59;55.53516;962.4142;;;;
2019/08/27 11:46:59;;;;;;;9.3;8.4;;;;;;;26.6;54.40234;962.4067;;;;
2019/08/27 11:49:24;;;;;;;11.5;10.4;;;;;;;26.79;55.15527;962.399;;;;
2019/08/27 11:51:49;;;;;;;11.8;10.8;;;;;;;26.8;56.45605;962.375;;;;
2019/08/27 11:54:15;;;;;;;10.1;9.2;;;;;;;26.96;54.89941;962.3795;;;;
2019/08/27 11:56:40;;;;;;;11.4;10.1;;;;;;;26.96;55.25781;962.3477;;;;
2019/08/27 11:59:05;;;;;;;12.6;11.4;;;;;;;27.13;55.14844;962.3723;;;;
2019/08/27 12:01:36;;;;;;;14;10.3;;;;;;;27.01;55.51563;962.3028;;;;
2019/08/27 12:03:56;;;;;;;16.7;15.1;;;;;;;27.14;57.35938;962.3094;;;;
2019/08/27 12:06:21;;;;;;;11.6;10.5;;;;;;;27.14;56.85742;962.3553;;;;
2019/08/27 12:08:46;;;;;;;8.9;8.1;;;;;;;27.45;56.8252;962.2578;;;;
2019/08/27 12:11:11;;;;;;;10.6;9.6;;;;;;;27.58;53.57617;962.2338;;;;
2019/08/27 12:13:36;;;;;;;11.2;10.2;;;;;;;27;55.32324;962.201;;;;
2019/08/27 12:16:01;;;;;;;10.8;9.8;;;;;;;26.75;56.88086;962.1479;;;;
2019/08/27 12:18:27;;;;;;;9.7;8.7;;;;;;;26.98;55.14063;962.0772;;;;
2019/08/27 12:20:52;;;;;;;9.8;8.9;;;;;;;27.1;54.53613;962.0623;;;;
2019/08/27 12:23:17;;;;;;;9.5;8.6;;;;;;;27.31;55.45801;962.0611;;;;
2019/08/27 12:25:43;;;;;;;12.6;9.8;;;;;;;27.16;54.75781;962.0358;;;;
2019/08/27 12:28:08;;;;;;;10.1;9.2;;;;;;;27.04;55.66309;962.0371;;;;
2019/08/27 12:30:34;;;;;;;12.4;9.6;;;;;;;27.17;54.3877;962.0139;;;;
2019/08/27 12:32:59;;;;;;;10.3;9.3;;;;;;;27.27;55.31934;962.0153;;;;
2019/08/27 12:35:25;;;;;;;9.8;8.8;;;;;;;27.72;55.20996;961.9557;;;;
2019/08/27 12:37:50;;;;;;;13.9;9.9;;;;;;;27.73;54.0498;961.9269;;;;
2019/08/27 12:40:15;;;;;;;9.9;9;;;;;;;27.97;50.53418;961.8995;;;;
2019/08/27 12:42:40;;;;;;;11.9;8.7;;;;;;;27.82;57.20703;961.8705;;;;
2019/08/27 12:45:05;;;;;;;10.2;9.2;;;;;;;27.66;52.07813;961.8557;;;;
2019/08/27 12:47:30;;;;;;;9.3;8.4;;;;;;;28.11;52.3584;961.8061;;;;
2019/08/27 12:49:56;;;;;;;9.2;8.3;;;;;;;28.33;47.40039;961.8201;;;;
2019/08/27 12:52:20;;;;;;;7.9;7.2;;;;;;;28.22;48.52637;961.7606;;;;
2019/08/27 12:54:46;;;;;;;8;7.3;;;;;;;28.12;48.68262;961.7368;;;;
2019/08/27 12:57:11;;;;;;;10.5;8;;;;;;;27.98;50.05762;961.7816;;;;
2019/08/27 12:59:36;;;;;;;8.1;7.3;;;;;;;28.15;49.67969;961.6934;;;;
2019/08/27 13:02:01;;;;;;;8.8;8;;;;;;;28.24;50.52832;961.7;;;;
2019/08/27 13:04:26;;;;;;;8.4;7.6;;;;;;;28.5;49.51563;961.6944;;;;
2019/08/27 13:06:51;;;;;;;16;9.2;;;;;;;28.33;50;961.6564;;;;
2019/08/27 13:09:16;;;;;;;10.7;9.5;;;;;;;28.1;51.1123;961.642;;;;
2019/08/27 13:11:41;;;;;;;12.7;11.5;;;;;;;28.2;53.06348;961.5978;;;;
2019/08/27 13:14:07;;;;;;;8.2;7.4;;;;;;;28.29;49.67188;961.6105;;;;
2019/08/27 13:16:32;;;;;;;7.4;6.8;;;;;;;28.71;46.09668;961.5934;;;;
2019/08/27 13:18:57;;;;;;;7.9;7.2;;;;;;;28.93;44.99121;961.5753;;;;
2019/08/27 13:21:22;;;;;;;9.8;8.8;;;;;;;29.06;46.1084;961.5263;;;;
2019/08/27 13:23:48;;;;;;;8.7;7.9;;;;;;;29.07;47.33301;961.5072;;;;
2019/08/27 13:26:13;;;;;;;9.3;8.4;;;;;;;29.22;47.76953;961.505;;;;
2019/08/27 13:28:39;;;;;;;8.5;7.7;;;;;;;29.31;47.19141;961.47;;;;
2019/08/27 13:31:04;;;;;;;6.9;6.3;;;;;;;29.57;42.88184;961.4395;;;;
2019/08/27 13:33:29;;;;;;;7.4;6.7;;;;;;;29.31;46.70996;961.4441;;;;
2019/08/27 13:35:54;;;;;;;8;7.2;;;;;;;29.28;45.02637;961.4094;;;;
2019/08/27 13:38:19;;;;;;;6.8;6.2;;;;;;;29.8;43.01074;961.4185;;;;
2019/08/27 13:40:44;;;;;;;7.5;6.8;;;;;;;29.65;41.9873;961.4224;;;;
2019/08/27 13:43:09;;;;;;;8.2;6.9;;;;;;;29.67;42.85352;961.375;;;;
2019/08/27 13:45:34;;;;;;;7.5;6.7;;;;;;;29.96;43.80762;961.3582;;;;
2019/08/27 13:47:59;;;;;;;7.2;6.5;;;;;;;30.08;43.85547;961.3555;;;;
2019/08/27 13:50:24;;;;;;;6.2;5.7;;;;;;;29.91;42.5166;961.3694;;;;
2019/08/27 13:52:49;;;;;;;7.2;6.5;;;;;;;29.87;39.38574;961.3552;;;;
2019/08/27 13:55:15;;;;;;;6.8;6.1;;;;;;;29.54;41.15918;961.2869;;;;
2019/08/27 13:57:40;;;;;;;7.3;6.2;;;;;;;29.51;42.32227;961.27;;;;